3NY8 weather

Suny Health Science Center Heliport
Syracuse, New York, United States

Public forecast

Using degrees Fahrenheit for public forecast. Weather courtesy of forecast.io.

METAR (pilot weather report)

Closest report is Syracuse Hancock International Airport, 4.4 nm (8.2 km) NNE. Retrieved 2019/07/21 19:54 UTC (55 minutes ago):

KSYR 211954Z 28011KT 10SM FEW050 SCT100 BKN250 29/12 A2985 RMK AO2 SLP101 T02940122 $

TAF (pilot weather forecast)

Closest forecast is Syracuse Hancock International Airport, 4.4 nm (8.2 km) NNE. Retrieved 2019/07/21 18:24 UTC (2 hours ago):

TAF KSYR 211722Z 2118/2218 28012G20KT P6SM SCT040 FM220100 28005KT P6SM FEW100 FM220900 VRB04KT P6SM OVC100 FM221600 21004KT P6SM -RA OVC040